Карточка аэропорта UAKK

Внимание!
Информация на этой странице в стадии наполнения.
Если вы не увидели какой-то информации, или заметили неточность - пожалуйста сообщите нам!
Спасибо!
Команда RU-STAFF
Название аэропортаКараганда
Название аэропорта (англ.)Karaganda
Превышение1768 ft. (538.9 m.)
Координаты49°40.302', 73°20.118'
Высота перехода10000ft
Эшелон переходаFL120, QNH<733:FL130
Коды ответчика0630-0637, 7220-7227
Зона ОрВДАстана РПИ (UACN)
Данные METARUAKK 170400Z 31003MPS CAVOK 24/16 Q1014 NOSIG RMK QFE713/0951
Проноз погоды (TAF)UAKK 162303Z 1700/1724 VRB02MPS 3100 BR SCT011 BKN060 TX27/1710Z TN16/1624Z TEMPO 1700/1702 0500 FG VV002 FM170300 32005MPS 9999 SCT030CB BKN100 TEMPO 1703/1715 VRB15MPS 3100 -TSRA SQ BKN020CB BECMG 1715/1717 VRB02MPS SCT040
NOTAMshow/hide NOTAM
AWOS   TABLE

Информация о ВПП

ВПП Длина ВПП (м.) Покрытие Курс ВПП Частота ILS
053601Железобетон50109.9
233601Железобетон230111.7

Диспетчерские позиции




Спутниковое изображение